sensor_id;sensor_type;location;lat;lon;timestamp;P1;durP1;ratioP1;P2;durP2;ratioP2
17566;SDS011;8901;52.088;5.084;2023-03-23T00:01:47;15.87;;;14.73;;
17566;SDS011;8901;52.088;5.084;2023-03-23T00:04:15;15.80;;;14.60;;
17566;SDS011;8901;52.088;5.084;2023-03-23T00:06:42;16.43;;;15.30;;
17566;SDS011;8901;52.088;5.084;2023-03-23T00:09:10;15.97;;;14.87;;
17566;SDS011;8901;52.088;5.084;2023-03-23T00:11:39;15.90;;;14.67;;
17566;SDS011;8901;52.088;5.084;2023-03-23T00:14:06;16.50;;;15.50;;
17566;SDS011;8901;52.088;5.084;2023-03-23T00:16:38;18.10;;;16.80;;
17566;SDS011;8901;52.088;5.084;2023-03-23T00:19:07;19.13;;;17.67;;
17566;SDS011;8901;52.088;5.084;2023-03-23T00:21:35;18.67;;;17.23;;
17566;SDS011;8901;52.088;5.084;2023-03-23T00:24:04;17.60;;;16.33;;
17566;SDS011;8901;52.088;5.084;2023-03-23T00:26:33;17.10;;;15.93;;
17566;SDS011;8901;52.088;5.084;2023-03-23T00:29:02;17.40;;;16.20;;
17566;SDS011;8901;52.088;5.084;2023-03-23T00:31:30;19.30;;;17.73;;
17566;SDS011;8901;52.088;5.084;2023-03-23T00:34:00;18.30;;;17.20;;
17566;SDS011;8901;52.088;5.084;2023-03-23T00:36:29;17.97;;;16.77;;
17566;SDS011;8901;52.088;5.084;2023-03-23T00:41:51;19.00;;;17.83;;
17566;SDS011;8901;52.088;5.084;2023-03-23T00:44:20;18.87;;;17.57;;
17566;SDS011;8901;52.088;5.084;2023-03-23T00:46:48;18.83;;;17.53;;
17566;SDS011;8901;52.088;5.084;2023-03-23T00:49:16;18.17;;;17.03;;
17566;SDS011;8901;52.088;5.084;2023-03-23T00:51:44;17.77;;;16.77;;
17566;SDS011;8901;52.088;5.084;2023-03-23T00:54:11;18.20;;;17.00;;
17566;SDS011;8901;52.088;5.084;2023-03-23T00:56:38;19.23;;;17.93;;
17566;SDS011;8901;52.088;5.084;2023-03-23T00:59:06;19.07;;;17.77;;
17566;SDS011;8901;52.088;5.084;2023-03-23T01:01:34;19.13;;;17.93;;
17566;SDS011;8901;52.088;5.084;2023-03-23T01:04:02;18.80;;;17.50;;
17566;SDS011;8901;52.088;5.084;2023-03-23T01:06:30;18.37;;;17.27;;
17566;SDS011;8901;52.088;5.084;2023-03-23T01:09:00;18.43;;;17.33;;
17566;SDS011;8901;52.088;5.084;2023-03-23T01:11:28;18.43;;;17.23;;
17566;SDS011;8901;52.088;5.084;2023-03-23T01:13:56;19.27;;;18.07;;
17566;SDS011;8901;52.088;5.084;2023-03-23T01:16:23;19.63;;;18.40;;
17566;SDS011;8901;52.088;5.084;2023-03-23T01:18:53;17.90;;;16.80;;
17566;SDS011;8901;52.088;5.084;2023-03-23T01:21:21;19.37;;;18.13;;
17566;SDS011;8901;52.088;5.084;2023-03-23T01:23:50;18.10;;;16.70;;
17566;SDS011;8901;52.088;5.084;2023-03-23T01:26:18;18.13;;;17.13;;
17566;SDS011;8901;52.088;5.084;2023-03-23T01:28:46;18.63;;;17.33;;
17566;SDS011;8901;52.088;5.084;2023-03-23T01:31:14;19.00;;;17.80;;
17566;SDS011;8901;52.088;5.084;2023-03-23T01:33:41;18.53;;;17.53;;
17566;SDS011;8901;52.088;5.084;2023-03-23T01:36:12;19.10;;;17.90;;
17566;SDS011;8901;52.088;5.084;2023-03-23T01:38:45;19.00;;;17.80;;
17566;SDS011;8901;52.088;5.084;2023-03-23T01:41:21;19.10;;;17.90;;
17566;SDS011;8901;52.088;5.084;2023-03-23T01:43:59;19.23;;;18.10;;
17566;SDS011;8901;52.088;5.084;2023-03-23T01:46:32;19.57;;;18.37;;
17566;SDS011;8901;52.088;5.084;2023-03-23T01:49:00;19.87;;;18.67;;
17566;SDS011;8901;52.088;5.084;2023-03-23T01:51:50;20.03;;;18.83;;
17566;SDS011;8901;52.088;5.084;2023-03-23T01:54:29;20.37;;;19.17;;
17566;SDS011;8901;52.088;5.084;2023-03-23T01:57:03;19.93;;;18.83;;
17566;SDS011;8901;52.088;5.084;2023-03-23T02:08:33;20.40;;;19.10;;
17566;SDS011;8901;52.088;5.084;2023-03-23T02:20:23;19.07;;;17.93;;
17566;SDS011;8901;52.088;5.084;2023-03-23T02:34:59;19.37;;;18.07;;
17566;SDS011;8901;52.088;5.084;2023-03-23T02:37:41;18.27;;;17.13;;
17566;SDS011;8901;52.088;5.084;2023-03-23T02:43:15;18.30;;;17.10;;
17566;SDS011;8901;52.088;5.084;2023-03-23T02:45:55;18.10;;;17.10;;
17566;SDS011;8901;52.088;5.084;2023-03-23T02:54:27;19.30;;;18.10;;
17566;SDS011;8901;52.088;5.084;2023-03-23T02:59:58;20.13;;;18.73;;
17566;SDS011;8901;52.088;5.084;2023-03-23T03:02:26;19.03;;;17.70;;
17566;SDS011;8901;52.088;5.084;2023-03-23T03:05:01;19.40;;;18.00;;
17566;SDS011;8901;52.088;5.084;2023-03-23T03:07:36;19.77;;;18.43;;
17566;SDS011;8901;52.088;5.084;2023-03-23T03:10:08;19.97;;;18.63;;
17566;SDS011;8901;52.088;5.084;2023-03-23T03:12:41;20.57;;;19.27;;
17566;SDS011;8901;52.088;5.084;2023-03-23T03:15:12;20.77;;;19.47;;
17566;SDS011;8901;52.088;5.084;2023-03-23T03:17:45;20.30;;;18.90;;
17566;SDS011;8901;52.088;5.084;2023-03-23T03:20:13;20.10;;;18.80;;
17566;SDS011;8901;52.088;5.084;2023-03-23T03:25:43;20.73;;;19.23;;
17566;SDS011;8901;52.088;5.084;2023-03-23T03:28:14;20.53;;;19.13;;
17566;SDS011;8901;52.088;5.084;2023-03-23T03:30:42;20.70;;;19.40;;
17566;SDS011;8901;52.088;5.084;2023-03-23T03:33:10;19.93;;;18.70;;
17566;SDS011;8901;52.088;5.084;2023-03-23T03:35:38;20.47;;;19.27;;
17566;SDS011;8901;52.088;5.084;2023-03-23T03:38:08;21.10;;;19.67;;
17566;SDS011;8901;52.088;5.084;2023-03-23T03:40:37;19.87;;;18.57;;
17566;SDS011;8901;52.088;5.084;2023-03-23T03:43:06;19.30;;;18.10;;
17566;SDS011;8901;52.088;5.084;2023-03-23T03:45:33;20.13;;;18.80;;
17566;SDS011;8901;52.088;5.084;2023-03-23T03:48:00;19.97;;;18.67;;
17566;SDS011;8901;52.088;5.084;2023-03-23T03:50:28;19.60;;;18.37;;
17566;SDS011;8901;52.088;5.084;2023-03-23T03:52:55;20.33;;;19.13;;
17566;SDS011;8901;52.088;5.084;2023-03-23T03:58:28;19.93;;;18.70;;
17566;SDS011;8901;52.088;5.084;2023-03-23T04:00:56;19.53;;;18.37;;
17566;SDS011;8901;52.088;5.084;2023-03-23T04:03:25;18.53;;;17.30;;
17566;SDS011;8901;52.088;5.084;2023-03-23T04:05:52;18.63;;;17.50;;
17566;SDS011;8901;52.088;5.084;2023-03-23T04:08:20;19.43;;;18.23;;
17566;SDS011;8901;52.088;5.084;2023-03-23T04:10:48;19.67;;;18.57;;
17566;SDS011;8901;52.088;5.084;2023-03-23T04:13:16;19.90;;;18.57;;
17566;SDS011;8901;52.088;5.084;2023-03-23T04:15:46;19.17;;;18.10;;
17566;SDS011;8901;52.088;5.084;2023-03-23T04:18:13;19.53;;;18.33;;
17566;SDS011;8901;52.088;5.084;2023-03-23T04:20:42;19.83;;;18.40;;
17566;SDS011;8901;52.088;5.084;2023-03-23T04:23:09;20.83;;;19.70;;
17566;SDS011;8901;52.088;5.084;2023-03-23T04:25:37;21.13;;;19.83;;
17566;SDS011;8901;52.088;5.084;2023-03-23T04:28:06;21.90;;;20.33;;
17566;SDS011;8901;52.088;5.084;2023-03-23T04:30:35;20.63;;;19.27;;
17566;SDS011;8901;52.088;5.084;2023-03-23T04:33:04;19.30;;;18.00;;
17566;SDS011;8901;52.088;5.084;2023-03-23T04:35:31;20.17;;;18.87;;
17566;SDS011;8901;52.088;5.084;2023-03-23T04:37:59;21.17;;;19.70;;
17566;SDS011;8901;52.088;5.084;2023-03-23T04:40:26;21.40;;;19.90;;
17566;SDS011;8901;52.088;5.084;2023-03-23T04:42:53;22.77;;;20.97;;
17566;SDS011;8901;52.088;5.084;2023-03-23T04:45:22;21.10;;;19.90;;
17566;SDS011;8901;52.088;5.084;2023-03-23T04:47:50;21.70;;;20.03;;
17566;SDS011;8901;52.088;5.084;2023-03-23T04:50:24;22.20;;;20.60;;
17566;SDS011;8901;52.088;5.084;2023-03-23T04:52:51;22.63;;;21.03;;
17566;SDS011;8901;52.088;5.084;2023-03-23T04:55:22;23.00;;;21.00;;
17566;SDS011;8901;52.088;5.084;2023-03-23T04:57:50;23.20;;;21.50;;
17566;SDS011;8901;52.088;5.084;2023-03-23T05:00:18;23.03;;;21.23;;
17566;SDS011;8901;52.088;5.084;2023-03-23T05:02:46;22.30;;;20.70;;
17566;SDS011;8901;52.088;5.084;2023-03-23T05:05:16;21.57;;;20.03;;
17566;SDS011;8901;52.088;5.084;2023-03-23T05:07:45;21.93;;;20.23;;
17566;SDS011;8901;52.088;5.084;2023-03-23T05:10:12;21.60;;;19.53;;
17566;SDS011;8901;52.088;5.084;2023-03-23T05:12:40;21.43;;;19.87;;
17566;SDS011;8901;52.088;5.084;2023-03-23T05:15:08;20.20;;;18.70;;
17566;SDS011;8901;52.088;5.084;2023-03-23T05:17:35;19.63;;;18.13;;
17566;SDS011;8901;52.088;5.084;2023-03-23T05:20:03;17.93;;;16.63;;
17566;SDS011;8901;52.088;5.084;2023-03-23T05:22:33;19.27;;;17.57;;
17566;SDS011;8901;52.088;5.084;2023-03-23T05:25:02;17.60;;;16.20;;
17566;SDS011;8901;52.088;5.084;2023-03-23T05:27:30;16.10;;;14.93;;
17566;SDS011;8901;52.088;5.084;2023-03-23T05:29:57;15.50;;;14.17;;
17566;SDS011;8901;52.088;5.084;2023-03-23T05:32:26;15.83;;;14.60;;
17566;SDS011;8901;52.088;5.084;2023-03-23T05:34:55;17.27;;;15.57;;
17566;SDS011;8901;52.088;5.084;2023-03-23T05:37:23;16.60;;;15.40;;
17566;SDS011;8901;52.088;5.084;2023-03-23T05:39:50;15.77;;;14.47;;
17566;SDS011;8901;52.088;5.084;2023-03-23T05:42:20;16.27;;;14.77;;
17566;SDS011;8901;52.088;5.084;2023-03-23T05:44:48;17.07;;;15.37;;
17566;SDS011;8901;52.088;5.084;2023-03-23T05:47:15;16.07;;;14.77;;
17566;SDS011;8901;52.088;5.084;2023-03-23T05:49:42;16.47;;;15.07;;
17566;SDS011;8901;52.088;5.084;2023-03-23T05:52:10;16.87;;;15.17;;
17566;SDS011;8901;52.088;5.084;2023-03-23T05:54:37;15.47;;;14.10;;
17566;SDS011;8901;52.088;5.084;2023-03-23T06:00:11;15.60;;;14.30;;
17566;SDS011;8901;52.088;5.084;2023-03-23T06:02:39;16.10;;;14.70;;
17566;SDS011;8901;52.088;5.084;2023-03-23T06:05:21;15.50;;;14.20;;
17566;SDS011;8901;52.088;5.084;2023-03-23T06:07:50;15.70;;;14.40;;
17566;SDS011;8901;52.088;5.084;2023-03-23T06:10:35;16.07;;;14.77;;
17566;SDS011;8901;52.088;5.084;2023-03-23T06:13:03;15.67;;;14.57;;
17566;SDS011;8901;52.088;5.084;2023-03-23T06:15:32;15.47;;;14.07;;
17566;SDS011;8901;52.088;5.084;2023-03-23T06:17:59;16.10;;;14.67;;
17566;SDS011;8901;52.088;5.084;2023-03-23T06:20:27;15.67;;;14.40;;
17566;SDS011;8901;52.088;5.084;2023-03-23T06:22:54;14.13;;;13.10;;
17566;SDS011;8901;52.088;5.084;2023-03-23T06:25:21;14.77;;;13.57;;
17566;SDS011;8901;52.088;5.084;2023-03-23T06:27:49;15.13;;;13.93;;
17566;SDS011;8901;52.088;5.084;2023-03-23T06:30:17;15.50;;;14.20;;
17566;SDS011;8901;52.088;5.084;2023-03-23T06:32:46;15.33;;;13.93;;
17566;SDS011;8901;52.088;5.084;2023-03-23T06:35:13;14.10;;;12.80;;
17566;SDS011;8901;52.088;5.084;2023-03-23T06:37:41;14.50;;;13.20;;
17566;SDS011;8901;52.088;5.084;2023-03-23T06:40:08;14.53;;;13.33;;
17566;SDS011;8901;52.088;5.084;2023-03-23T06:42:36;13.83;;;12.57;;
17566;SDS011;8901;52.088;5.084;2023-03-23T06:45:04;14.40;;;13.20;;
17566;SDS011;8901;52.088;5.084;2023-03-23T06:47:32;15.60;;;14.37;;
17566;SDS011;8901;52.088;5.084;2023-03-23T06:50:01;15.93;;;14.53;;
17566;SDS011;8901;52.088;5.084;2023-03-23T06:52:28;14.90;;;13.80;;
17566;SDS011;8901;52.088;5.084;2023-03-23T06:54:55;14.60;;;13.50;;
17566;SDS011;8901;52.088;5.084;2023-03-23T06:57:22;14.63;;;13.43;;
17566;SDS011;8901;52.088;5.084;2023-03-23T06:59:50;13.53;;;12.57;;
17566;SDS011;8901;52.088;5.084;2023-03-23T07:02:17;13.93;;;12.83;;
17566;SDS011;8901;52.088;5.084;2023-03-23T07:04:44;14.10;;;12.80;;
17566;SDS011;8901;52.088;5.084;2023-03-23T07:07:13;14.33;;;12.93;;
17566;SDS011;8901;52.088;5.084;2023-03-23T07:09:43;14.67;;;13.27;;
17566;SDS011;8901;52.088;5.084;2023-03-23T07:12:10;15.10;;;13.90;;
17566;SDS011;8901;52.088;5.084;2023-03-23T07:14:39;16.57;;;14.77;;
17566;SDS011;8901;52.088;5.084;2023-03-23T07:17:06;14.83;;;13.67;;
17566;SDS011;8901;52.088;5.084;2023-03-23T07:19:34;16.63;;;15.20;;
17566;SDS011;8901;52.088;5.084;2023-03-23T07:22:03;16.10;;;15.00;;
17566;SDS011;8901;52.088;5.084;2023-03-23T07:24:31;16.20;;;14.70;;
17566;SDS011;8901;52.088;5.084;2023-03-23T07:26:59;16.80;;;15.30;;
17566;SDS011;8901;52.088;5.084;2023-03-23T07:29:26;16.23;;;14.90;;
17566;SDS011;8901;52.088;5.084;2023-03-23T07:31:53;16.23;;;14.73;;
17566;SDS011;8901;52.088;5.084;2023-03-23T07:34:21;15.80;;;14.50;;
17566;SDS011;8901;52.088;5.084;2023-03-23T07:36:48;15.07;;;13.87;;
17566;SDS011;8901;52.088;5.084;2023-03-23T07:39:15;16.90;;;15.20;;
17566;SDS011;8901;52.088;5.084;2023-03-23T07:41:46;15.70;;;14.40;;
17566;SDS011;8901;52.088;5.084;2023-03-23T07:44:13;16.87;;;15.40;;
17566;SDS011;8901;52.088;5.084;2023-03-23T07:46:40;15.40;;;13.87;;
17566;SDS011;8901;52.088;5.084;2023-03-23T07:49:08;16.50;;;15.13;;
17566;SDS011;8901;52.088;5.084;2023-03-23T07:51:35;16.37;;;15.07;;
17566;SDS011;8901;52.088;5.084;2023-03-23T07:54:04;16.47;;;15.07;;
17566;SDS011;8901;52.088;5.084;2023-03-23T07:56:32;16.67;;;15.10;;
17566;SDS011;8901;52.088;5.084;2023-03-23T07:59:01;15.87;;;14.63;;
17566;SDS011;8901;52.088;5.084;2023-03-23T08:01:29;15.93;;;14.73;;
17566;SDS011;8901;52.088;5.084;2023-03-23T08:03:57;17.27;;;15.87;;
17566;SDS011;8901;52.088;5.084;2023-03-23T08:06:24;17.10;;;15.80;;
17566;SDS011;8901;52.088;5.084;2023-03-23T08:08:52;16.97;;;15.80;;
17566;SDS011;8901;52.088;5.084;2023-03-23T08:11:20;15.63;;;14.43;;
17566;SDS011;8901;52.088;5.084;2023-03-23T08:13:47;16.27;;;14.90;;
17566;SDS011;8901;52.088;5.084;2023-03-23T08:16:16;17.20;;;16.07;;
17566;SDS011;8901;52.088;5.084;2023-03-23T08:18:44;17.03;;;15.93;;
17566;SDS011;8901;52.088;5.084;2023-03-23T08:21:11;16.90;;;15.50;;
17566;SDS011;8901;52.088;5.084;2023-03-23T08:23:38;16.80;;;15.60;;
17566;SDS011;8901;52.088;5.084;2023-03-23T08:26:06;15.77;;;14.67;;
17566;SDS011;8901;52.088;5.084;2023-03-23T08:28:33;16.30;;;15.00;;
17566;SDS011;8901;52.088;5.084;2023-03-23T08:31:05;16.70;;;15.40;;
17566;SDS011;8901;52.088;5.084;2023-03-23T08:33:34;17.10;;;15.90;;
17566;SDS011;8901;52.088;5.084;2023-03-23T08:36:02;17.00;;;15.60;;
17566;SDS011;8901;52.088;5.084;2023-03-23T08:38:29;16.23;;;15.10;;
17566;SDS011;8901;52.088;5.084;2023-03-23T08:40:57;17.00;;;15.67;;
17566;SDS011;8901;52.088;5.084;2023-03-23T08:43:24;17.20;;;15.87;;
17566;SDS011;8901;52.088;5.084;2023-03-23T08:45:52;15.70;;;14.30;;
17566;SDS011;8901;52.088;5.084;2023-03-23T08:48:19;15.37;;;13.97;;
17566;SDS011;8901;52.088;5.084;2023-03-23T08:50:49;16.67;;;15.27;;
17566;SDS011;8901;52.088;5.084;2023-03-23T08:53:17;15.37;;;14.17;;
17566;SDS011;8901;52.088;5.084;2023-03-23T08:55:45;15.90;;;14.63;;
17566;SDS011;8901;52.088;5.084;2023-03-23T08:58:12;15.43;;;14.23;;
17566;SDS011;8901;52.088;5.084;2023-03-23T09:00:40;17.10;;;15.67;;
17566;SDS011;8901;52.088;5.084;2023-03-23T09:03:07;14.87;;;13.67;;
17566;SDS011;8901;52.088;5.084;2023-03-23T09:05:34;16.03;;;14.60;;
17566;SDS011;8901;52.088;5.084;2023-03-23T09:08:05;15.63;;;14.53;;
17566;SDS011;8901;52.088;5.084;2023-03-23T09:10:33;15.97;;;14.40;;
17566;SDS011;8901;52.088;5.084;2023-03-23T09:13:00;15.40;;;14.03;;
17566;SDS011;8901;52.088;5.084;2023-03-23T09:15:27;16.40;;;15.10;;
17566;SDS011;8901;52.088;5.084;2023-03-23T09:17:54;16.47;;;14.97;;
17566;SDS011;8901;52.088;5.084;2023-03-23T09:20:23;16.97;;;15.50;;
17566;SDS011;8901;52.088;5.084;2023-03-23T09:22:51;17.07;;;15.37;;
17566;SDS011;8901;52.088;5.084;2023-03-23T09:25:22;16.27;;;14.77;;
17566;SDS011;8901;52.088;5.084;2023-03-23T09:27:50;17.10;;;15.40;;
17566;SDS011;8901;52.088;5.084;2023-03-23T09:30:21;17.10;;;15.57;;
17566;SDS011;8901;52.088;5.084;2023-03-23T09:32:48;19.77;;;17.67;;
17566;SDS011;8901;52.088;5.084;2023-03-23T09:35:16;17.47;;;15.93;;
17566;SDS011;8901;52.088;5.084;2023-03-23T09:37:46;17.73;;;16.03;;
17566;SDS011;8901;52.088;5.084;2023-03-23T09:40:15;18.57;;;16.57;;
17566;SDS011;8901;52.088;5.084;2023-03-23T09:42:49;18.20;;;16.70;;
17566;SDS011;8901;52.088;5.084;2023-03-23T09:45:23;19.70;;;17.97;;
17566;SDS011;8901;52.088;5.084;2023-03-23T09:47:58;19.07;;;17.17;;
17566;SDS011;8901;52.088;5.084;2023-03-23T09:50:28;19.13;;;17.30;;
17566;SDS011;8901;52.088;5.084;2023-03-23T09:52:58;19.10;;;17.40;;
17566;SDS011;8901;52.088;5.084;2023-03-23T09:55:26;19.10;;;17.40;;
17566;SDS011;8901;52.088;5.084;2023-03-23T09:57:57;18.40;;;17.03;;
17566;SDS011;8901;52.088;5.084;2023-03-23T10:00:26;19.27;;;17.60;;
17566;SDS011;8901;52.088;5.084;2023-03-23T10:02:59;20.53;;;18.67;;
17566;SDS011;8901;52.088;5.084;2023-03-23T10:05:30;21.33;;;19.73;;
17566;SDS011;8901;52.088;5.084;2023-03-23T10:07:58;20.13;;;18.60;;
17566;SDS011;8901;52.088;5.084;2023-03-23T10:10:31;20.50;;;18.70;;
17566;SDS011;8901;52.088;5.084;2023-03-23T10:13:03;20.43;;;18.73;;
17566;SDS011;8901;52.088;5.084;2023-03-23T10:15:34;21.47;;;19.30;;
17566;SDS011;8901;52.088;5.084;2023-03-23T10:18:04;19.93;;;18.43;;
17566;SDS011;8901;52.088;5.084;2023-03-23T10:20:40;20.87;;;19.20;;
17566;SDS011;8901;52.088;5.084;2023-03-23T10:23:13;18.93;;;17.47;;
17566;SDS011;8901;52.088;5.084;2023-03-23T10:25:41;22.10;;;20.40;;
17566;SDS011;8901;52.088;5.084;2023-03-23T10:28:11;20.50;;;18.90;;
17566;SDS011;8901;52.088;5.084;2023-03-23T10:30:40;21.50;;;19.40;;
17566;SDS011;8901;52.088;5.084;2023-03-23T10:33:11;21.67;;;19.70;;
17566;SDS011;8901;52.088;5.084;2023-03-23T10:35:42;21.17;;;19.57;;
17566;SDS011;8901;52.088;5.084;2023-03-23T10:38:11;20.60;;;18.83;;
17566;SDS011;8901;52.088;5.084;2023-03-23T10:40:45;22.50;;;20.60;;
17566;SDS011;8901;52.088;5.084;2023-03-23T10:43:16;23.17;;;21.00;;
17566;SDS011;8901;52.088;5.084;2023-03-23T10:45:44;23.13;;;21.03;;
17566;SDS011;8901;52.088;5.084;2023-03-23T10:48:14;23.70;;;21.40;;
17566;SDS011;8901;52.088;5.084;2023-03-23T10:50:43;22.30;;;20.00;;
17566;SDS011;8901;52.088;5.084;2023-03-23T10:53:13;22.37;;;20.57;;
17566;SDS011;8901;52.088;5.084;2023-03-23T10:55:42;22.73;;;21.23;;
17566;SDS011;8901;52.088;5.084;2023-03-23T10:58:10;21.53;;;19.83;;
17566;SDS011;8901;52.088;5.084;2023-03-23T11:00:44;23.07;;;21.17;;
17566;SDS011;8901;52.088;5.084;2023-03-23T11:03:27;22.00;;;20.00;;
17566;SDS011;8901;52.088;5.084;2023-03-23T11:05:58;23.30;;;21.53;;
17566;SDS011;8901;52.088;5.084;2023-03-23T11:08:29;25.00;;;22.77;;
17566;SDS011;8901;52.088;5.084;2023-03-23T11:10:58;23.93;;;21.70;;
17566;SDS011;8901;52.088;5.084;2023-03-23T11:13:28;22.63;;;20.93;;
17566;SDS011;8901;52.088;5.084;2023-03-23T11:15:58;23.63;;;21.20;;
17566;SDS011;8901;52.088;5.084;2023-03-23T11:18:26;21.93;;;20.10;;
17566;SDS011;8901;52.088;5.084;2023-03-23T11:20:54;23.27;;;21.30;;
17566;SDS011;8901;52.088;5.084;2023-03-23T11:23:22;23.27;;;21.50;;
17566;SDS011;8901;52.088;5.084;2023-03-23T11:25:57;24.30;;;22.33;;
17566;SDS011;8901;52.088;5.084;2023-03-23T11:28:26;23.03;;;21.17;;
17566;SDS011;8901;52.088;5.084;2023-03-23T11:30:55;24.97;;;23.07;;
17566;SDS011;8901;52.088;5.084;2023-03-23T11:33:25;22.57;;;20.60;;
17566;SDS011;8901;52.088;5.084;2023-03-23T11:35:55;22.97;;;20.93;;
17566;SDS011;8901;52.088;5.084;2023-03-23T11:38:23;22.47;;;20.63;;
17566;SDS011;8901;52.088;5.084;2023-03-23T11:40:52;23.17;;;21.27;;
17566;SDS011;8901;52.088;5.084;2023-03-23T11:43:20;21.03;;;19.50;;
17566;SDS011;8901;52.088;5.084;2023-03-23T11:45:49;22.43;;;20.07;;
17566;SDS011;8901;52.088;5.084;2023-03-23T11:48:18;23.50;;;19.60;;
17566;SDS011;8901;52.088;5.084;2023-03-23T11:50:49;20.50;;;18.63;;
17566;SDS011;8901;52.088;5.084;2023-03-23T11:53:22;18.90;;;17.33;;
17566;SDS011;8901;52.088;5.084;2023-03-23T11:55:52;19.60;;;18.10;;
17566;SDS011;8901;52.088;5.084;2023-03-23T11:58:20;19.73;;;18.03;;
17566;SDS011;8901;52.088;5.084;2023-03-23T12:00:49;19.90;;;18.10;;
17566;SDS011;8901;52.088;5.084;2023-03-23T12:03:26;19.30;;;17.63;;
17566;SDS011;8901;52.088;5.084;2023-03-23T12:06:01;18.07;;;16.50;;
17566;SDS011;8901;52.088;5.084;2023-03-23T12:08:36;19.20;;;17.60;;
17566;SDS011;8901;52.088;5.084;2023-03-23T12:11:07;20.30;;;18.40;;
17566;SDS011;8901;52.088;5.084;2023-03-23T12:13:44;21.43;;;19.17;;
17566;SDS011;8901;52.088;5.084;2023-03-23T12:16:18;20.03;;;18.03;;
17566;SDS011;8901;52.088;5.084;2023-03-23T12:18:50;20.57;;;18.67;;
17566;SDS011;8901;52.088;5.084;2023-03-23T12:21:28;18.67;;;17.37;;
17566;SDS011;8901;52.088;5.084;2023-03-23T12:24:00;20.97;;;18.83;;
17566;SDS011;8901;52.088;5.084;2023-03-23T12:26:31;21.23;;;19.23;;
17566;SDS011;8901;52.088;5.084;2023-03-23T12:29:02;20.67;;;18.83;;
17566;SDS011;8901;52.088;5.084;2023-03-23T12:31:33;19.20;;;17.80;;
17566;SDS011;8901;52.088;5.084;2023-03-23T12:34:05;19.17;;;17.40;;
17566;SDS011;8901;52.088;5.084;2023-03-23T12:36:38;20.33;;;18.33;;
17566;SDS011;8901;52.088;5.084;2023-03-23T12:39:25;20.57;;;18.57;;
17566;SDS011;8901;52.088;5.084;2023-03-23T12:41:57;19.10;;;17.30;;
17566;SDS011;8901;52.088;5.084;2023-03-23T12:44:27;18.83;;;17.13;;
17566;SDS011;8901;52.088;5.084;2023-03-23T12:47:02;18.23;;;16.37;;
17566;SDS011;8901;52.088;5.084;2023-03-23T12:49:33;18.87;;;17.07;;
17566;SDS011;8901;52.088;5.084;2023-03-23T12:52:04;19.97;;;18.17;;
17566;SDS011;8901;52.088;5.084;2023-03-23T12:54:32;20.13;;;18.43;;
17566;SDS011;8901;52.088;5.084;2023-03-23T12:57:02;19.00;;;17.53;;
17566;SDS011;8901;52.088;5.084;2023-03-23T12:59:34;19.27;;;17.53;;
17566;SDS011;8901;52.088;5.084;2023-03-23T13:02:05;18.13;;;16.53;;
17566;SDS011;8901;52.088;5.084;2023-03-23T13:04:35;18.50;;;16.93;;
17566;SDS011;8901;52.088;5.084;2023-03-23T13:07:05;18.63;;;17.13;;
17566;SDS011;8901;52.088;5.084;2023-03-23T13:09:36;17.93;;;16.43;;
17566;SDS011;8901;52.088;5.084;2023-03-23T13:12:16;18.33;;;16.63;;
17566;SDS011;8901;52.088;5.084;2023-03-23T13:14:50;17.57;;;16.20;;
17566;SDS011;8901;52.088;5.084;2023-03-23T13:17:28;17.63;;;16.03;;
17566;SDS011;8901;52.088;5.084;2023-03-23T13:22:49;17.50;;;16.10;;
17566;SDS011;8901;52.088;5.084;2023-03-23T13:28:27;18.27;;;16.80;;
17566;SDS011;8901;52.088;5.084;2023-03-23T13:45:48;17.47;;;15.87;;
17566;SDS011;8901;52.088;5.084;2023-03-23T13:54:14;17.10;;;15.20;;
17566;SDS011;8901;52.088;5.084;2023-03-23T13:59:47;16.53;;;14.97;;
17566;SDS011;8901;52.088;5.084;2023-03-23T14:08:23;13.43;;;12.23;;
17566;SDS011;8901;52.088;5.084;2023-03-23T14:16:31;13.30;;;12.20;;
17566;SDS011;8901;52.088;5.084;2023-03-23T14:25:11;13.23;;;11.70;;
17566;SDS011;8901;52.088;5.084;2023-03-23T14:27:46;13.67;;;12.27;;
17566;SDS011;8901;52.088;5.084;2023-03-23T14:30:15;13.27;;;12.00;;
17566;SDS011;8901;52.088;5.084;2023-03-23T14:41:03;13.87;;;12.43;;
17566;SDS011;8901;52.088;5.084;2023-03-23T14:46:34;15.73;;;13.07;;
17566;SDS011;8901;52.088;5.084;2023-03-23T14:49:06;15.60;;;13.07;;
17566;SDS011;8901;52.088;5.084;2023-03-23T14:51:34;16.57;;;13.47;;
17566;SDS011;8901;52.088;5.084;2023-03-23T14:54:08;15.60;;;14.07;;
17566;SDS011;8901;52.088;5.084;2023-03-23T14:59:41;14.20;;;12.80;;
17566;SDS011;8901;52.088;5.084;2023-03-23T15:02:27;15.37;;;12.77;;
17566;SDS011;8901;52.088;5.084;2023-03-23T15:08:00;14.50;;;13.30;;
17566;SDS011;8901;52.088;5.084;2023-03-23T15:10:29;13.67;;;12.67;;
17566;SDS011;8901;52.088;5.084;2023-03-23T15:16:05;14.67;;;13.30;;
17566;SDS011;8901;52.088;5.084;2023-03-23T15:21:45;16.90;;;14.70;;
17566;SDS011;8901;52.088;5.084;2023-03-23T15:33:21;13.67;;;12.27;;
17566;SDS011;8901;52.088;5.084;2023-03-23T15:36:05;13.43;;;11.70;;
17566;SDS011;8901;52.088;5.084;2023-03-23T15:41:30;13.07;;;11.70;;
17566;SDS011;8901;52.088;5.084;2023-03-23T15:50:11;12.80;;;11.30;;
17566;SDS011;8901;52.088;5.084;2023-03-23T15:55:42;12.53;;;11.33;;
17566;SDS011;8901;52.088;5.084;2023-03-23T15:58:16;14.90;;;12.50;;
17566;SDS011;8901;52.088;5.084;2023-03-23T16:03:46;17.40;;;12.23;;
17566;SDS011;8901;52.088;5.084;2023-03-23T16:09:19;14.40;;;11.97;;
17566;SDS011;8901;52.088;5.084;2023-03-23T16:20:51;13.73;;;11.70;;
17566;SDS011;8901;52.088;5.084;2023-03-23T16:23:35;14.80;;;10.77;;
17566;SDS011;8901;52.088;5.084;2023-03-23T16:26:12;11.77;;;10.60;;
17566;SDS011;8901;52.088;5.084;2023-03-23T16:28:46;12.93;;;11.20;;
17566;SDS011;8901;52.088;5.084;2023-03-23T16:37:11;13.97;;;11.43;;
17566;SDS011;8901;52.088;5.084;2023-03-23T16:39:45;13.70;;;11.17;;
17566;SDS011;8901;52.088;5.084;2023-03-23T16:44:48;13.83;;;11.77;;
17566;SDS011;8901;52.088;5.084;2023-03-23T16:47:19;15.67;;;11.50;;
17566;SDS011;8901;52.088;5.084;2023-03-23T16:55:35;13.70;;;9.90;;
17566;SDS011;8901;52.088;5.084;2023-03-23T16:58:17;15.97;;;10.90;;
17566;SDS011;8901;52.088;5.084;2023-03-23T17:09:31;17.13;;;10.73;;
17566;SDS011;8901;52.088;5.084;2023-03-23T17:12:02;15.10;;;11.13;;
17566;SDS011;8901;52.088;5.084;2023-03-23T17:14:30;15.00;;;11.50;;
17566;SDS011;8901;52.088;5.084;2023-03-23T17:22:28;12.87;;;8.73;;
17566;SDS011;8901;52.088;5.084;2023-03-23T17:25:08;12.00;;;9.93;;
17566;SDS011;8901;52.088;5.084;2023-03-23T17:33:57;13.63;;;9.30;;
17566;SDS011;8901;52.088;5.084;2023-03-23T17:36:24;12.13;;;10.30;;
17566;SDS011;8901;52.088;5.084;2023-03-23T17:39:06;12.13;;;10.03;;
17566;SDS011;8901;52.088;5.084;2023-03-23T17:50:10;14.03;;;9.60;;
17566;SDS011;8901;52.088;5.084;2023-03-23T17:52:40;12.67;;;8.87;;
17566;SDS011;8901;52.088;5.084;2023-03-23T17:55:21;12.30;;;9.33;;
17566;SDS011;8901;52.088;5.084;2023-03-23T17:57:50;10.93;;;9.53;;
17566;SDS011;8901;52.088;5.084;2023-03-23T18:15:22;12.43;;;10.10;;
17566;SDS011;8901;52.088;5.084;2023-03-23T18:18:06;13.33;;;9.30;;
17566;SDS011;8901;52.088;5.084;2023-03-23T18:23:48;10.17;;;8.83;;
17566;SDS011;8901;52.088;5.084;2023-03-23T18:26:28;9.33;;;8.30;;
17566;SDS011;8901;52.088;5.084;2023-03-23T18:29:09;9.63;;;8.33;;
17566;SDS011;8901;52.088;5.084;2023-03-23T18:34:49;9.60;;;8.60;;
17566;SDS011;8901;52.088;5.084;2023-03-23T18:37:18;10.57;;;9.13;;
17566;SDS011;8901;52.088;5.084;2023-03-23T18:42:48;11.33;;;9.50;;